createdAt,value
2024-01-20T00:00:15.773Z,59.97
2024-01-20T00:02:43.587Z,56.97
2024-01-20T00:05:12.322Z,58.70
2024-01-20T00:07:39.892Z,58.10
2024-01-20T00:10:14.134Z,62.20
2024-01-20T00:12:42.885Z,59.08
2024-01-20T00:15:11.134Z,61.72
2024-01-20T00:17:39.595Z,60.72
2024-01-20T00:20:07.698Z,60.70
2024-01-20T00:22:34.625Z,60.95
2024-01-20T00:25:03.756Z,61.35
2024-01-20T00:27:31.919Z,64.35
2024-01-20T00:29:59.215Z,62.97
2024-01-20T00:32:25.975Z,62.20
2024-01-20T00:35:00.592Z,62.35
2024-01-20T00:37:38.422Z,64.18
2024-01-20T00:40:06.482Z,60.95
2024-01-20T00:42:33.320Z,60.10
2024-01-20T00:45:00.009Z,59.13
2024-01-20T00:47:26.644Z,62.65
2024-01-20T00:49:53.316Z,58.45
2024-01-20T00:52:20.001Z,63.13
2024-01-20T00:54:46.614Z,62.33
2024-01-20T00:57:13.251Z,63.03
2024-01-20T00:59:39.965Z,59.88
2024-01-20T01:02:06.580Z,59.80
2024-01-20T01:04:33.274Z,61.38
2024-01-20T01:06:59.893Z,57.40
2024-01-20T01:09:26.452Z,67.57
2024-01-20T01:11:53.037Z,62.17
2024-01-20T01:14:20.724Z,57.22
2024-01-20T01:16:47.761Z,62.47
2024-01-20T01:19:14.446Z,61.90
2024-01-20T01:21:41.046Z,58.60
2024-01-20T01:24:07.755Z,63.50
2024-01-20T01:26:34.541Z,57.05
2024-01-20T01:29:01.617Z,59.25
2024-01-20T01:31:28.248Z,59.13
2024-01-20T01:33:54.962Z,58.40
2024-01-20T01:36:21.745Z,56.80
2024-01-20T01:38:48.352Z,60.75
2024-01-20T01:41:15.083Z,59.22
2024-01-20T01:43:42.051Z,58.05
2024-01-20T01:46:09.523Z,50.27
2024-01-20T01:48:36.315Z,55.75
2024-01-20T01:51:06.635Z,57.22
2024-01-20T01:53:34.174Z,62.67
2024-01-20T01:56:02.131Z,60.17
2024-01-20T01:58:29.422Z,53.13
2024-01-20T05:04:18.514Z,51.50
2024-01-20T05:06:46.860Z,54.47
2024-01-20T05:09:14.850Z,54.08
2024-01-20T05:11:41.680Z,55.58
2024-01-20T05:14:12.109Z,54.83
2024-01-20T05:16:38.664Z,54.67
2024-01-20T05:19:05.468Z,59.72
2024-01-20T05:21:32.282Z,60.35
2024-01-20T05:23:58.936Z,60.40
2024-01-20T05:26:25.593Z,55.87
2024-01-20T05:28:52.182Z,59.35
2024-01-20T05:31:18.735Z,50.72
2024-01-20T05:33:45.594Z,49.53
2024-01-20T05:36:15.673Z,52.35
2024-01-20T05:38:42.533Z,57.13
2024-01-20T05:41:10.124Z,59.78
2024-01-20T05:43:37.680Z,51.88
2024-01-20T05:46:08.092Z,50.70
2024-01-20T05:48:36.364Z,51.63
2024-01-20T05:51:03.668Z,51.47
2024-01-20T05:53:30.575Z,51.88
2024-01-20T05:55:57.258Z,48.72
2024-01-20T05:58:23.833Z,46.33
2024-01-20T06:00:50.805Z,51.10
2024-01-20T06:03:17.522Z,46.57
2024-01-20T06:05:44.541Z,50.45
2024-01-20T06:08:11.864Z,46.38
2024-01-20T06:10:38.754Z,46.95
2024-01-20T06:13:05.370Z,45.90
2024-01-20T06:15:32.083Z,43.77
2024-01-20T06:17:58.796Z,46.80
2024-01-20T06:20:25.490Z,46.05
2024-01-20T06:22:52.085Z,42.38
2024-01-20T06:25:19.573Z,45.42
2024-01-20T06:27:46.160Z,48.83
2024-01-20T06:30:34.148Z,44.53
2024-01-20T06:33:01.330Z,42.00
2024-01-20T06:35:28.034Z,42.08
2024-01-20T06:37:54.619Z,42.55
2024-01-20T06:40:21.308Z,40.87
2024-01-20T06:42:48.017Z,41.22
2024-01-20T06:45:14.779Z,41.55
2024-01-20T06:47:41.576Z,42.92
2024-01-20T06:50:09.645Z,38.25
2024-01-20T06:52:36.289Z,44.10
2024-01-20T06:55:03.261Z,43.72
2024-01-20T06:57:31.041Z,46.15
2024-01-20T06:59:58.135Z,44.05
2024-01-20T07:02:24.813Z,45.70
2024-01-20T07:04:51.449Z,45.83
2024-01-20T07:07:18.423Z,42.42
2024-01-20T07:09:45.049Z,47.63
2024-01-20T07:12:11.857Z,41.40
2024-01-20T07:14:38.566Z,41.70
2024-01-20T07:17:06.483Z,44.17
2024-01-20T07:19:33.218Z,46.95
2024-01-20T07:21:59.893Z,44.08
2024-01-20T07:24:28.977Z,43.38
2024-01-20T07:26:56.098Z,44.03
2024-01-20T07:29:23.742Z,47.83
2024-01-20T07:31:51.463Z,42.67
2024-01-20T07:34:18.621Z,46.33
2024-01-20T07:36:45.444Z,44.08
2024-01-20T07:39:12.450Z,50.33
2024-01-20T07:41:39.118Z,39.60
2024-01-20T07:44:05.731Z,42.53
2024-01-20T07:46:32.325Z,48.92
2024-01-20T07:48:58.944Z,41.53
2024-01-20T07:51:25.655Z,40.50
2024-01-20T07:53:52.276Z,44.97
2024-01-20T07:56:18.924Z,45.97
2024-01-20T07:58:46.457Z,44.33
2024-01-20T08:01:13.070Z,46.25
2024-01-20T08:03:39.764Z,44.35
2024-01-20T08:06:06.584Z,46.73
2024-01-20T08:08:33.296Z,48.97
2024-01-20T08:10:59.833Z,44.40
2024-01-20T08:13:26.371Z,47.45
2024-01-20T08:15:52.967Z,43.55
2024-01-20T08:18:22.903Z,46.03
2024-01-20T08:20:49.558Z,46.10
2024-01-20T08:23:16.133Z,45.70
2024-01-20T08:25:42.782Z,44.90
2024-01-20T08:28:09.851Z,52.28
2024-01-20T08:30:36.595Z,47.73
2024-01-20T08:33:05.317Z,47.20
2024-01-20T08:35:32.845Z,45.88
2024-01-20T08:37:59.601Z,43.03
2024-01-20T08:40:26.346Z,45.10
2024-01-20T08:42:52.949Z,46.63
2024-01-20T08:45:19.772Z,44.03
2024-01-20T08:47:46.479Z,49.60
2024-01-20T08:50:13.220Z,45.47
2024-01-20T08:52:40.855Z,50.60
2024-01-20T08:55:08.296Z,44.00
2024-01-20T08:57:35.132Z,48.03
2024-01-20T09:00:02.194Z,45.00
2024-01-20T09:02:36.764Z,50.70
2024-01-20T09:05:03.969Z,47.58
2024-01-20T09:07:30.546Z,44.27
2024-01-20T09:09:59.145Z,47.72
2024-01-20T09:12:26.484Z,43.55
2024-01-20T09:14:53.268Z,40.38
2024-01-20T09:17:19.896Z,45.00
2024-01-20T09:19:47.517Z,41.13
2024-01-20T09:22:14.227Z,42.55
2024-01-20T09:24:40.830Z,39.83
2024-01-20T09:27:07.545Z,39.30
2024-01-20T09:29:34.291Z,41.72
2024-01-20T09:32:00.898Z,40.80
2024-01-20T09:34:29.448Z,41.88
2024-01-20T09:36:56.101Z,41.05
2024-01-20T09:39:23.052Z,38.15
2024-01-20T09:41:50.038Z,39.30
2024-01-20T09:44:17.768Z,42.37
2024-01-20T09:46:45.268Z,38.22
2024-01-20T09:49:12.077Z,38.60
2024-01-20T09:51:52.621Z,37.92
2024-01-20T09:54:21.701Z,39.75
2024-01-20T09:56:48.804Z,38.47
2024-01-20T09:59:16.398Z,38.58
2024-01-20T10:01:45.206Z,36.83
2024-01-20T10:04:18.005Z,37.88
2024-01-20T10:06:45.926Z,38.58
2024-01-20T10:09:12.687Z,35.43
2024-01-20T10:11:39.302Z,36.65
2024-01-20T10:14:06.210Z,36.30
2024-01-20T10:16:42.442Z,36.28
2024-01-20T10:19:09.451Z,35.72
2024-01-20T10:21:42.679Z,36.20
2024-01-20T10:24:09.967Z,39.35
2024-01-20T10:26:43.828Z,33.72
2024-01-20T10:29:13.549Z,30.23
2024-01-20T10:31:40.183Z,35.78
2024-01-20T10:34:07.095Z,32.87
2024-01-20T10:36:34.412Z,36.90
2024-01-20T10:39:06.297Z,34.55
2024-01-20T10:41:38.089Z,34.38
2024-01-20T10:44:08.771Z,34.83
2024-01-20T10:46:40.523Z,32.77
2024-01-20T10:49:15.580Z,32.70
2024-01-20T10:51:43.753Z,35.28
2024-01-20T10:54:11.554Z,33.60
2024-01-20T10:56:38.850Z,32.28
2024-01-20T10:59:18.091Z,34.83
2024-01-20T11:01:46.562Z,30.42
2024-01-20T11:04:20.895Z,29.33
2024-01-20T11:06:49.056Z,31.38
2024-01-20T11:09:23.195Z,30.52
2024-01-20T11:12:01.173Z,31.03
2024-01-20T11:14:32.108Z,30.25
2024-01-20T11:17:09.097Z,28.15
2024-01-20T11:19:35.739Z,26.70
2024-01-20T11:22:02.353Z,27.35
2024-01-20T11:24:43.607Z,26.63
2024-01-20T11:27:10.508Z,29.17
2024-01-20T11:29:37.146Z,29.52
2024-01-20T11:32:04.439Z,27.45
2024-01-20T11:34:31.153Z,25.40
2024-01-20T11:36:59.997Z,26.27
2024-01-20T11:39:26.667Z,26.15
2024-01-20T11:42:03.885Z,25.98
2024-01-20T11:44:33.982Z,26.25
2024-01-20T11:47:00.813Z,24.17
2024-01-20T11:49:28.013Z,24.93
2024-01-20T11:51:55.174Z,24.40
2024-01-20T11:54:22.041Z,24.75
2024-01-20T11:56:57.455Z,24.08
2024-01-20T11:59:24.084Z,24.08
2024-01-20T12:01:50.826Z,22.40
2024-01-20T12:04:17.733Z,22.75
2024-01-20T12:06:44.493Z,23.90
2024-01-20T12:09:12.610Z,24.05
2024-01-20T12:11:40.901Z,25.52
2024-01-20T12:14:09.325Z,22.93
2024-01-20T12:16:36.557Z,26.10
2024-01-20T12:19:03.351Z,24.10
2024-01-20T12:21:30.194Z,26.17
2024-01-20T12:23:57.476Z,26.85
2024-01-20T12:26:24.612Z,27.67
2024-01-20T12:28:54.324Z,23.30
2024-01-20T12:31:23.041Z,23.48
2024-01-20T12:33:50.731Z,25.58
2024-01-20T12:36:17.740Z,25.40
2024-01-20T12:38:44.530Z,24.90
2024-01-20T12:41:11.921Z,24.30
2024-01-20T12:43:38.711Z,22.73
2024-01-20T12:46:05.330Z,23.33
2024-01-20T12:48:32.094Z,23.20
2024-01-20T12:51:00.800Z,22.13
2024-01-20T12:53:28.028Z,23.75
2024-01-20T12:55:54.711Z,21.25
2024-01-20T12:58:21.353Z,22.08
2024-01-20T13:00:48.156Z,21.27
2024-01-20T13:03:14.845Z,23.77
2024-01-20T13:05:42.754Z,21.08
2024-01-20T13:08:09.403Z,21.17
2024-01-20T13:10:38.780Z,20.75
2024-01-20T13:13:05.359Z,20.48
2024-01-20T13:15:32.097Z,20.27
2024-01-20T13:17:58.877Z,21.15
2024-01-20T13:20:25.520Z,22.63
2024-01-20T13:22:52.182Z,21.65
2024-01-20T13:25:19.893Z,21.48
2024-01-20T13:27:46.746Z,59.47
2024-01-20T13:30:13.848Z,21.60
2024-01-20T13:32:40.890Z,21.63
2024-01-20T13:35:08.470Z,23.10
2024-01-20T13:37:35.251Z,25.60
2024-01-20T13:40:02.622Z,24.37
2024-01-20T13:42:29.239Z,25.02
2024-01-20T13:44:55.845Z,23.25
2024-01-20T13:47:22.455Z,21.38
2024-01-20T13:49:49.316Z,25.50
2024-01-20T13:52:16.067Z,22.87
2024-01-20T13:54:43.559Z,31.13
2024-01-20T13:57:11.182Z,31.38
2024-01-20T13:59:37.836Z,28.25
2024-01-20T14:02:04.676Z,25.42
2024-01-20T14:04:31.363Z,21.73
2024-01-20T14:07:03.265Z,21.73
2024-01-20T14:09:32.097Z,22.35
2024-01-20T14:11:58.789Z,23.15
2024-01-20T14:14:25.469Z,22.70
2024-01-20T14:16:59.496Z,19.73
2024-01-20T14:19:28.185Z,18.08
2024-01-20T14:21:55.026Z,22.40
2024-01-20T14:24:21.856Z,17.90
2024-01-20T14:26:49.033Z,22.25
2024-01-20T14:29:16.156Z,24.57
2024-01-20T14:31:50.361Z,23.10
2024-01-20T14:34:17.835Z,21.70
2024-01-20T14:36:46.963Z,20.35
2024-01-20T14:39:14.922Z,20.13
2024-01-20T14:41:41.633Z,17.50
2024-01-20T14:44:08.338Z,19.10
2024-01-20T14:46:34.948Z,18.27
2024-01-20T14:49:11.458Z,21.70
2024-01-20T14:51:38.370Z,19.58
2024-01-20T14:54:05.838Z,22.20
2024-01-20T14:56:36.847Z,21.38
2024-01-20T14:59:04.612Z,24.42
2024-01-20T15:01:32.402Z,26.95
2024-01-20T15:03:59.126Z,22.13
2024-01-20T15:06:27.786Z,19.13
2024-01-20T15:08:54.721Z,19.77
2024-01-20T15:11:21.352Z,19.92
2024-01-20T15:13:48.097Z,21.75
2024-01-20T15:16:14.836Z,22.30
2024-01-20T15:18:41.513Z,18.60
2024-01-20T15:21:08.539Z,22.17
2024-01-20T15:23:35.626Z,19.40
2024-01-20T15:26:02.265Z,19.98
2024-01-20T15:28:28.926Z,22.48
2024-01-20T15:30:55.547Z,20.97
2024-01-20T15:33:22.855Z,19.20
2024-01-20T15:35:49.635Z,20.52
2024-01-20T15:38:16.871Z,21.30
2024-01-20T15:40:44.247Z,22.40
2024-01-20T15:43:10.954Z,25.03
2024-01-20T15:45:38.575Z,21.05
2024-01-20T15:48:06.075Z,24.30
2024-01-20T15:50:32.833Z,21.30
2024-01-20T15:52:59.477Z,22.92
2024-01-20T15:55:26.025Z,24.33
2024-01-20T15:57:52.677Z,22.40
2024-01-20T16:00:19.310Z,26.40
2024-01-20T16:02:46.497Z,26.58
2024-01-20T16:05:13.395Z,32.58
2024-01-20T16:07:40.057Z,33.97
2024-01-20T16:10:07.165Z,32.85
2024-01-20T16:12:33.841Z,27.55
2024-01-20T16:15:00.760Z,25.25
2024-01-20T16:17:27.742Z,25.75
2024-01-20T16:19:54.567Z,27.23
2024-01-20T16:22:21.159Z,24.98
2024-01-20T16:24:47.846Z,25.60
2024-01-20T16:27:14.763Z,23.70
2024-01-20T16:29:41.365Z,23.30
2024-01-20T16:32:10.657Z,25.27
2024-01-20T16:34:38.121Z,26.02
2024-01-20T16:37:05.308Z,25.27
2024-01-20T16:39:32.029Z,27.08
2024-01-20T16:41:58.892Z,26.38
2024-01-20T16:44:27.079Z,22.13
2024-01-20T16:46:54.236Z,26.60
2024-01-20T16:49:22.196Z,26.58
2024-01-20T16:51:49.227Z,26.50
2024-01-20T16:54:16.086Z,29.52
2024-01-20T16:56:42.991Z,34.97
2024-01-20T16:59:10.564Z,27.42
2024-01-20T17:01:38.208Z,25.15
2024-01-20T17:04:05.660Z,32.25
2024-01-20T17:06:34.200Z,29.17
2024-01-20T17:09:02.001Z,25.03
2024-01-20T17:11:28.850Z,27.10
2024-01-20T17:13:55.695Z,31.67
2024-01-20T17:16:22.480Z,25.70
2024-01-20T17:18:49.282Z,29.48
2024-01-20T17:21:17.544Z,25.47
2024-01-20T17:23:44.895Z,24.92
2024-01-20T17:26:12.084Z,29.98
2024-01-20T17:28:38.904Z,29.63
2024-01-20T17:31:05.837Z,26.50
2024-01-20T17:33:32.836Z,23.87
2024-01-20T17:35:59.490Z,27.13
2024-01-20T17:38:26.219Z,28.38
2024-01-20T17:40:52.903Z,39.47
2024-01-20T17:43:19.491Z,32.10
2024-01-20T17:45:51.280Z,26.97
2024-01-20T17:48:18.161Z,23.65
2024-01-20T17:50:44.884Z,26.67
2024-01-20T17:53:13.307Z,24.60
2024-01-20T17:55:41.122Z,24.55
2024-01-20T17:58:10.162Z,27.57
2024-01-20T18:00:37.934Z,25.80
2024-01-20T18:03:05.832Z,30.38
2024-01-20T18:05:32.585Z,30.35
2024-01-20T18:07:59.312Z,26.85
2024-01-20T18:10:26.108Z,25.93
2024-01-20T18:12:52.761Z,27.65
2024-01-20T18:15:19.519Z,29.90
2024-01-20T18:17:46.725Z,26.95
2024-01-20T18:20:14.100Z,26.40
2024-01-20T18:22:40.875Z,29.73
2024-01-20T18:25:08.248Z,28.42
2024-01-20T18:27:35.041Z,38.72
2024-01-20T18:30:01.901Z,31.52
2024-01-20T18:32:29.071Z,33.40
2024-01-20T18:34:55.788Z,52.23
2024-01-20T18:37:22.287Z,36.00
2024-01-20T18:39:49.201Z,39.65
2024-01-20T18:42:19.057Z,34.38
2024-01-20T18:44:45.739Z,36.97
2024-01-20T18:47:12.608Z,44.10
2024-01-20T18:49:39.458Z,30.83
2024-01-20T18:52:06.612Z,26.55
2024-01-20T18:54:33.338Z,28.70
2024-01-20T18:56:59.983Z,28.92
2024-01-20T18:59:26.600Z,30.77
2024-01-20T19:01:54.383Z,26.63
2024-01-20T19:04:21.755Z,27.45
2024-01-20T19:06:48.851Z,27.35
2024-01-20T19:09:15.492Z,27.85
2024-01-20T19:11:42.191Z,30.13
2024-01-20T19:14:08.814Z,32.00
2024-01-20T19:16:35.433Z,27.70
2024-01-20T19:19:04.507Z,33.30
2024-01-20T19:21:31.380Z,30.98
2024-01-20T19:23:58.459Z,30.80
2024-01-20T19:26:25.083Z,31.40
2024-01-20T19:28:51.948Z,30.45
2024-01-20T19:31:18.587Z,34.83
2024-01-20T19:33:48.867Z,35.17
2024-01-20T19:36:15.593Z,33.57
2024-01-20T19:38:42.381Z,31.83
2024-01-20T19:41:09.427Z,38.70
2024-01-20T19:43:36.439Z,34.55
2024-01-20T19:46:03.796Z,33.10
2024-01-20T19:48:33.003Z,32.33
2024-01-20T19:50:59.869Z,32.75
2024-01-20T19:53:26.804Z,31.15
2024-01-20T19:55:53.692Z,31.92
2024-01-20T19:58:20.367Z,32.45
2024-01-20T20:00:49.397Z,32.63
2024-01-20T20:03:16.477Z,30.73
2024-01-20T20:05:46.556Z,32.47
2024-01-20T20:08:14.044Z,30.88
2024-01-20T20:10:40.748Z,33.38
2024-01-20T20:13:07.326Z,30.50
2024-01-20T20:15:33.948Z,33.95
2024-01-20T20:18:00.729Z,28.83
2024-01-20T20:20:27.509Z,30.60
2024-01-20T20:22:57.030Z,32.60
2024-01-20T20:25:23.604Z,29.50
2024-01-20T20:27:50.253Z,33.55
2024-01-20T20:30:17.334Z,32.63
2024-01-20T20:32:45.265Z,31.08
2024-01-20T20:35:13.300Z,32.92
2024-01-20T20:37:40.534Z,30.93
2024-01-20T20:40:09.492Z,30.80
2024-01-20T20:42:36.141Z,35.67
2024-01-20T20:45:02.828Z,33.20
2024-01-20T20:47:29.496Z,30.58
2024-01-20T20:49:56.934Z,32.27
2024-01-20T20:52:23.698Z,34.80
2024-01-20T20:54:50.452Z,32.25
2024-01-20T20:57:19.196Z,29.52
2024-01-20T20:59:46.286Z,30.98
2024-01-20T21:02:13.049Z,29.97
2024-01-20T21:04:39.738Z,27.67
2024-01-20T21:07:07.881Z,28.55
2024-01-20T21:09:35.249Z,32.53
2024-01-20T21:12:02.441Z,24.33
2024-01-20T21:14:32.148Z,28.80
2024-01-20T21:16:58.786Z,25.15
2024-01-20T21:19:25.541Z,27.38
2024-01-20T21:21:52.377Z,29.13
2024-01-20T21:24:22.086Z,27.52
2024-01-20T21:26:48.747Z,26.97
2024-01-20T21:29:15.337Z,27.17
2024-01-20T21:31:43.372Z,25.15
2024-01-20T21:34:10.138Z,26.08
2024-01-20T21:36:37.233Z,25.13
2024-01-20T21:39:09.411Z,22.40
2024-01-20T21:41:36.824Z,24.25
2024-01-20T21:44:04.351Z,22.45
2024-01-20T21:46:31.107Z,24.85
2024-01-20T21:48:58.046Z,25.27
2024-01-20T21:51:24.807Z,22.43
2024-01-20T21:53:51.451Z,22.77
2024-01-20T21:56:18.049Z,22.75
2024-01-20T21:58:44.998Z,22.95
2024-01-20T22:01:11.777Z,23.75
2024-01-20T22:03:38.688Z,21.70
2024-01-20T22:06:05.801Z,20.60
2024-01-20T22:08:32.397Z,24.80
2024-01-20T22:10:59.087Z,20.98
2024-01-20T22:13:27.389Z,21.75
2024-01-20T22:15:54.191Z,21.03
2024-01-20T22:18:21.099Z,18.35
2024-01-20T22:20:47.824Z,20.23
2024-01-20T22:23:14.487Z,20.20
2024-01-20T22:25:41.196Z,20.00
2024-01-20T22:28:07.817Z,19.10
2024-01-20T22:30:34.473Z,19.83
2024-01-20T22:33:01.640Z,17.55
2024-01-20T22:35:30.839Z,19.60
2024-01-20T22:37:57.667Z,16.88
2024-01-20T22:40:24.727Z,20.83
2024-01-20T22:42:51.952Z,17.10
2024-01-20T22:45:18.664Z,16.02
2024-01-20T22:47:46.152Z,17.33
2024-01-20T22:50:13.232Z,18.50
2024-01-20T22:52:43.100Z,17.23
2024-01-20T22:55:09.918Z,16.60
2024-01-20T22:57:39.322Z,16.20
2024-01-20T23:00:13.817Z,16.15
2024-01-20T23:02:42.943Z,17.38
2024-01-20T23:05:10.150Z,16.57
2024-01-20T23:07:39.396Z,18.65
2024-01-20T23:10:06.438Z,17.88
2024-01-20T23:12:33.078Z,13.82
2024-01-20T23:14:59.709Z,13.55
2024-01-20T23:17:26.447Z,16.43
2024-01-20T23:19:53.064Z,14.93
2024-01-20T23:22:19.750Z,14.57
2024-01-20T23:24:46.996Z,13.63
2024-01-20T23:27:14.055Z,15.18
2024-01-20T23:29:41.232Z,14.13
2024-01-20T23:32:12.303Z,13.40
2024-01-20T23:34:40.998Z,15.05
2024-01-20T23:37:07.683Z,12.75
2024-01-20T23:39:34.322Z,11.73
2024-01-20T23:42:00.974Z,13.97
2024-01-20T23:44:27.573Z,13.75
2024-01-20T23:46:55.646Z,13.02
2024-01-20T23:49:22.430Z,13.95
2024-01-20T23:51:49.072Z,12.30
2024-01-20T23:54:15.789Z,11.43
2024-01-20T23:56:42.420Z,13.52
2024-01-20T23:59:09.258Z,12.25
